createdAt,value
2023-01-03T00:01:59.523Z,12.19
2023-01-03T00:04:27.195Z,12.67
2023-01-03T00:06:55.342Z,12.31
2023-01-03T00:09:24.800Z,12.80
2023-01-03T00:12:12.173Z,12.87
2023-01-03T00:14:41.773Z,12.58
2023-01-03T00:17:12.315Z,13.22
2023-01-03T00:19:41.977Z,13.60
2023-01-03T00:22:10.695Z,13.05
2023-01-03T00:24:38.876Z,13.80
2023-01-03T00:27:06.643Z,14.43
2023-01-03T00:29:34.562Z,15.14
2023-01-03T00:32:02.167Z,14.97
2023-01-03T00:34:31.186Z,14.99
2023-01-03T00:36:58.852Z,14.74
2023-01-03T00:39:30.348Z,13.94
2023-01-03T00:41:57.871Z,13.76
2023-01-03T00:44:25.566Z,13.54
2023-01-03T00:46:53.159Z,12.88
2023-01-03T00:49:20.818Z,13.59
2023-01-03T00:51:50.158Z,12.30
2023-01-03T00:54:17.827Z,12.85
2023-01-03T00:56:47.080Z,13.01
2023-01-03T00:59:16.360Z,12.87
2023-01-03T01:01:47.866Z,12.34
2023-01-03T01:04:22.431Z,12.56
2023-01-03T01:06:54.341Z,12.00
2023-01-03T01:09:23.511Z,11.81
2023-01-03T01:11:51.332Z,11.70
2023-01-03T01:14:23.068Z,11.35
2023-01-03T01:16:53.558Z,11.13
2023-01-03T01:19:23.439Z,11.51
2023-01-03T01:21:52.609Z,11.03
2023-01-03T01:24:20.879Z,10.71
2023-01-03T01:26:48.898Z,10.71
2023-01-03T01:29:17.748Z,10.82
2023-01-03T01:31:46.363Z,11.20
2023-01-03T01:34:14.994Z,11.15
2023-01-03T01:36:43.834Z,10.96
2023-01-03T01:39:14.443Z,10.98
2023-01-03T01:42:00.559Z,10.99
2023-01-03T01:44:48.506Z,10.60
2023-01-03T01:47:20.839Z,10.62
2023-01-03T01:49:52.590Z,11.09
2023-01-03T01:52:21.823Z,10.78
2023-01-03T01:54:54.357Z,10.99
2023-01-03T01:57:25.335Z,11.31
2023-01-03T01:59:52.771Z,11.08
2023-01-03T02:02:22.782Z,11.14
2023-01-03T02:04:54.334Z,11.12
2023-01-03T02:07:23.127Z,11.13
2023-01-03T02:09:55.948Z,10.93
2023-01-03T02:12:47.762Z,10.61
2023-01-03T02:15:26.324Z,10.63
2023-01-03T02:18:11.070Z,10.49
2023-01-03T02:21:00.123Z,10.24
2023-01-03T02:24:01.979Z,10.52
2023-01-03T02:26:45.081Z,10.80
2023-01-03T02:29:43.319Z,10.44
2023-01-03T02:32:16.728Z,10.42
2023-01-03T02:34:50.456Z,10.27
2023-01-03T02:37:28.186Z,10.35
2023-01-03T02:40:02.357Z,10.43
2023-01-03T02:42:53.648Z,10.67
2023-01-03T02:45:35.857Z,10.24
2023-01-03T02:48:11.104Z,10.77
2023-01-03T02:50:46.266Z,11.02
2023-01-03T02:53:17.819Z,10.87
2023-01-03T02:55:45.827Z,10.80
2023-01-03T02:58:17.894Z,11.06
2023-01-03T03:00:50.304Z,10.40
2023-01-03T03:03:23.046Z,10.15
2023-01-03T03:05:55.145Z,9.64
2023-01-03T03:08:22.572Z,9.91
2023-01-03T03:11:08.037Z,9.33
2023-01-03T03:13:39.731Z,9.05
2023-01-03T03:16:12.696Z,9.35
2023-01-03T03:18:50.267Z,9.59
2023-01-03T03:21:37.746Z,9.37
2023-01-03T03:24:29.883Z,9.38
2023-01-03T03:26:59.909Z,9.30
2023-01-03T03:29:28.943Z,9.13
2023-01-03T03:31:57.395Z,9.56
2023-01-03T03:34:28.745Z,9.84
2023-01-03T03:37:00.797Z,9.25
2023-01-03T03:39:49.372Z,8.75
2023-01-03T03:42:41.203Z,8.93
2023-01-03T03:45:13.606Z,9.03
2023-01-03T03:47:47.370Z,9.02
2023-01-03T03:50:23.381Z,9.63
2023-01-03T03:52:54.668Z,9.08
2023-01-03T03:55:27.583Z,9.31
2023-01-03T03:57:59.711Z,9.14
2023-01-03T04:00:32.865Z,9.33
2023-01-03T04:03:03.183Z,9.46
2023-01-03T04:05:35.668Z,9.81
2023-01-03T04:08:03.315Z,10.33
2023-01-03T04:10:37.214Z,10.23
2023-01-03T04:13:05.632Z,10.45
2023-01-03T04:15:33.069Z,10.40
2023-01-03T04:18:01.877Z,10.27
2023-01-03T04:20:29.539Z,10.28
2023-01-03T04:22:58.307Z,10.22
2023-01-03T04:25:25.959Z,10.21
2023-01-03T04:27:53.353Z,10.24
2023-01-03T04:30:21.071Z,10.24
2023-01-03T04:32:48.478Z,10.30
2023-01-03T04:35:16.012Z,9.27
2023-01-03T04:37:43.406Z,9.71
2023-01-03T04:40:12.934Z,9.40
2023-01-03T04:42:57.688Z,9.40
2023-01-03T04:45:25.182Z,9.76
2023-01-03T04:47:54.001Z,9.28
2023-01-03T04:50:21.431Z,9.99
2023-01-03T04:52:48.902Z,10.02
2023-01-03T04:55:17.752Z,9.09
2023-01-03T04:57:45.193Z,9.65
2023-01-03T05:00:13.457Z,9.65
2023-01-03T05:02:41.114Z,9.70
2023-01-03T05:05:09.954Z,10.09
2023-01-03T05:07:37.585Z,10.24
2023-01-03T05:10:05.446Z,10.05
2023-01-03T05:12:34.209Z,9.94
2023-01-03T05:15:01.655Z,10.01
2023-01-03T05:17:29.105Z,9.79
2023-01-03T05:20:13.969Z,10.24
2023-01-03T05:22:58.642Z,9.56
2023-01-03T05:25:43.564Z,10.01
2023-01-03T05:28:17.303Z,10.06
2023-01-03T05:30:45.413Z,9.89
2023-01-03T05:33:12.925Z,9.80
2023-01-03T05:35:40.359Z,9.74
2023-01-03T05:38:07.835Z,9.50
2023-01-03T05:40:41.030Z,9.34
2023-01-03T05:43:09.056Z,9.63
2023-01-03T05:45:38.111Z,9.52
2023-01-03T05:48:06.564Z,9.18
2023-01-03T05:50:34.105Z,9.55
2023-01-03T05:53:01.689Z,9.10
2023-01-03T05:55:29.078Z,9.69
2023-01-03T05:57:56.498Z,9.60
2023-01-03T06:00:24.103Z,9.45
2023-01-03T06:02:52.873Z,9.22
2023-01-03T06:05:20.324Z,9.53
2023-01-03T06:07:47.788Z,9.44
2023-01-03T06:10:15.190Z,9.36
2023-01-03T06:12:42.672Z,9.40
2023-01-03T06:15:10.902Z,9.21
2023-01-03T06:17:57.468Z,9.18
2023-01-03T06:20:27.549Z,9.35
2023-01-03T06:22:55.883Z,9.38
2023-01-03T06:25:23.542Z,9.59
2023-01-03T06:27:51.033Z,9.55
2023-01-03T06:30:18.560Z,9.20
2023-01-03T06:32:46.051Z,9.54
2023-01-03T06:35:13.892Z,9.33
2023-01-03T06:37:42.938Z,9.00
2023-01-03T06:40:11.465Z,9.12
2023-01-03T06:42:43.615Z,8.58
2023-01-03T06:45:31.473Z,8.85
2023-01-03T06:48:16.997Z,9.17
2023-01-03T06:51:02.232Z,8.93
2023-01-03T06:53:35.850Z,8.80
2023-01-03T06:56:04.006Z,9.09
2023-01-03T06:58:31.437Z,8.90
2023-01-03T07:01:02.560Z,9.34
2023-01-03T07:03:30.406Z,9.44
2023-01-03T07:05:57.821Z,8.88
2023-01-03T07:08:25.323Z,9.29
2023-01-03T07:10:55.167Z,7.87
2023-01-03T07:13:39.970Z,7.63
2023-01-03T07:16:07.966Z,8.56
2023-01-03T07:18:35.438Z,8.92
2023-01-03T07:21:06.587Z,8.47
2023-01-03T07:23:34.147Z,8.31
2023-01-03T07:26:02.936Z,8.66
2023-01-03T07:28:30.390Z,8.29
2023-01-03T07:31:01.667Z,8.79
2023-01-03T07:33:29.505Z,9.14
2023-01-03T07:36:03.620Z,9.17
2023-01-03T07:38:35.232Z,9.01
2023-01-03T07:41:05.264Z,8.53
2023-01-03T07:43:37.583Z,8.83
2023-01-03T07:46:11.066Z,8.42
2023-01-03T07:48:39.434Z,8.76
2023-01-03T07:51:07.730Z,9.14
2023-01-03T07:53:36.150Z,9.33
2023-01-03T07:56:12.601Z,9.09
2023-01-03T07:58:41.797Z,9.22
2023-01-03T08:01:11.026Z,9.06
2023-01-03T08:03:39.717Z,9.15
2023-01-03T08:06:09.808Z,9.32
2023-01-03T08:08:38.412Z,9.38
2023-01-03T08:11:25.174Z,9.38
2023-01-03T08:13:53.020Z,9.38
2023-01-03T08:16:20.824Z,9.21
2023-01-03T08:18:48.282Z,9.11
2023-01-03T08:21:16.851Z,8.94
2023-01-03T08:23:44.665Z,9.34
2023-01-03T08:26:14.786Z,9.31
2023-01-03T08:28:43.714Z,9.07
2023-01-03T08:31:13.556Z,8.91
2023-01-03T08:33:44.657Z,8.87
2023-01-03T08:36:13.738Z,9.15
2023-01-03T08:38:45.229Z,8.12
2023-01-03T08:41:17.764Z,9.18
2023-01-03T08:43:47.140Z,9.38
2023-01-03T08:46:17.303Z,9.40
2023-01-03T08:48:45.355Z,8.42
2023-01-03T08:51:12.829Z,8.79
2023-01-03T08:53:40.331Z,9.40
2023-01-03T08:56:08.764Z,9.64
2023-01-03T08:58:37.540Z,8.88
2023-01-03T09:01:06.785Z,9.39
2023-01-03T09:03:34.480Z,9.59
2023-01-03T09:06:03.466Z,9.30
2023-01-03T09:08:31.213Z,9.71
2023-01-03T09:10:58.977Z,9.61
2023-01-03T09:13:26.717Z,9.82
2023-01-03T09:16:02.457Z,9.64
2023-01-03T09:18:30.188Z,9.10
2023-01-03T09:20:57.654Z,9.52
2023-01-03T09:23:25.131Z,9.39
2023-01-03T09:25:52.717Z,9.32
2023-01-03T09:28:20.132Z,9.43
2023-01-03T09:30:48.352Z,9.66
2023-01-03T09:33:17.127Z,9.13
2023-01-03T09:35:44.552Z,9.39
2023-01-03T09:38:12.182Z,9.70
2023-01-03T09:40:42.492Z,9.26
2023-01-03T09:43:21.447Z,8.76
2023-01-03T09:45:55.051Z,8.72
2023-01-03T09:48:30.308Z,9.45
2023-01-03T09:51:18.444Z,9.53
2023-01-03T09:54:02.594Z,10.03
2023-01-03T09:56:47.489Z,12.36
2023-01-03T09:59:36.387Z,11.31
2023-01-03T10:02:50.503Z,13.42
2023-01-03T10:05:32.460Z,13.55
2023-01-03T10:08:20.289Z,12.29
2023-01-03T10:10:58.707Z,11.82
2023-01-03T10:13:39.682Z,12.84
2023-01-03T10:16:14.321Z,12.41
2023-01-03T10:18:56.601Z,11.89
2023-01-03T10:21:34.330Z,11.44
2023-01-03T10:24:02.175Z,10.99
2023-01-03T10:26:33.116Z,10.67
2023-01-03T10:29:01.984Z,10.57
2023-01-03T10:31:44.291Z,10.40
2023-01-03T10:34:12.270Z,10.07
2023-01-03T10:36:41.166Z,9.53
2023-01-03T10:39:10.806Z,9.25
2023-01-03T10:41:44.305Z,10.03
2023-01-03T10:44:25.449Z,9.74
2023-01-03T10:46:55.416Z,9.27
2023-01-03T10:49:27.961Z,9.63
2023-01-03T10:52:01.585Z,9.88
2023-01-03T10:54:45.640Z,9.75
2023-01-03T10:57:39.181Z,9.86
2023-01-03T11:00:30.904Z,10.42
2023-01-03T11:03:10.881Z,9.97
2023-01-03T11:05:39.881Z,9.04
2023-01-03T11:08:16.765Z,8.73
2023-01-03T11:10:54.457Z,8.80
2023-01-03T11:13:30.131Z,8.04
2023-01-03T11:15:59.626Z,8.03
2023-01-03T11:18:29.093Z,8.14
2023-01-03T11:21:07.154Z,8.43
2023-01-03T11:23:51.263Z,8.77
2023-01-03T11:26:29.192Z,8.49
2023-01-03T11:29:09.961Z,8.60
2023-01-03T11:31:49.439Z,8.54
2023-01-03T11:35:20.644Z,9.02
2023-01-03T11:37:42.309Z,8.87
2023-01-03T11:40:21.966Z,9.01
2023-01-03T11:43:04.728Z,9.83
2023-01-03T11:45:48.798Z,9.82
2023-01-03T11:48:33.658Z,9.54
2023-01-03T11:51:13.223Z,9.54
2023-01-03T11:53:56.619Z,9.64
2023-01-03T11:56:30.565Z,10.27
2023-01-03T11:59:19.987Z,8.99
2023-01-03T12:02:04.815Z,9.18
2023-01-03T12:04:39.560Z,10.04
2023-01-03T12:07:46.263Z,9.96
2023-01-03T12:10:08.789Z,9.66
2023-01-03T12:12:56.486Z,9.13
2023-01-03T12:15:27.634Z,8.66
2023-01-03T12:18:01.704Z,8.66
2023-01-03T12:20:33.647Z,9.20
2023-01-03T12:23:05.891Z,8.49
2023-01-03T12:25:37.629Z,8.91
2023-01-03T12:28:16.420Z,8.60
2023-01-03T12:30:48.424Z,8.66
2023-01-03T12:33:30.897Z,9.08
2023-01-03T12:36:02.595Z,8.12
2023-01-03T12:38:33.117Z,8.70
2023-01-03T12:41:07.835Z,8.47
2023-01-03T12:43:45.827Z,8.52
2023-01-03T12:46:18.343Z,8.54
2023-01-03T12:48:59.467Z,8.60
2023-01-03T12:51:28.086Z,8.49
2023-01-03T12:54:06.439Z,8.25
2023-01-03T12:56:50.642Z,8.40
2023-01-03T12:59:39.193Z,8.90
2023-01-03T13:02:17.864Z,9.97
2023-01-03T13:04:46.297Z,10.00
2023-01-03T13:07:19.044Z,9.40
2023-01-03T13:09:51.526Z,9.46
2023-01-03T13:12:27.103Z,10.07
2023-01-03T13:14:57.872Z,9.72
2023-01-03T13:17:26.942Z,10.26
2023-01-03T13:19:59.812Z,9.99
2023-01-03T13:22:44.195Z,10.46
2023-01-03T13:25:38.636Z,10.31
2023-01-03T13:28:29.713Z,10.40
2023-01-03T13:31:37.532Z,10.72
2023-01-03T13:34:17.507Z,10.47
2023-01-03T13:37:17.920Z,10.40
2023-01-03T13:40:03.797Z,10.06
2023-01-03T13:42:36.471Z,9.86
2023-01-03T13:45:56.129Z,9.20
2023-01-03T13:48:39.509Z,9.75
2023-01-03T13:51:26.615Z,9.17
2023-01-03T13:54:00.226Z,8.64
2023-01-03T13:56:29.978Z,9.15
2023-01-03T13:59:09.480Z,8.97
2023-01-03T14:01:55.148Z,8.78
2023-01-03T14:04:41.863Z,9.04
2023-01-03T14:07:30.577Z,9.35
2023-01-03T14:10:12.610Z,9.97
2023-01-03T14:13:11.700Z,9.77
2023-01-03T14:15:39.306Z,11.14
2023-01-03T14:18:20.727Z,10.54
2023-01-03T14:20:52.218Z,10.59
2023-01-03T14:26:14.684Z,10.21
2023-01-03T14:28:42.201Z,10.04
2023-01-03T14:31:19.659Z,10.24
2023-01-03T14:33:52.702Z,9.76
2023-01-03T14:36:21.487Z,9.92
2023-01-03T14:38:50.701Z,9.67
2023-01-03T14:41:27.695Z,9.87
2023-01-03T14:44:03.157Z,9.41
2023-01-03T14:46:32.322Z,9.53
2023-01-03T14:49:03.634Z,9.71
2023-01-03T14:51:35.073Z,9.99
2023-01-03T14:54:04.114Z,9.92
2023-01-03T14:56:32.758Z,10.08
2023-01-03T14:59:01.889Z,10.03
2023-01-03T15:01:30.512Z,9.71
2023-01-03T15:03:59.081Z,9.88
2023-01-03T15:06:28.993Z,9.89
2023-01-03T15:09:00.154Z,9.86
2023-01-03T15:11:31.872Z,9.81
2023-01-03T15:14:03.156Z,9.36
2023-01-03T15:16:33.936Z,9.48
2023-01-03T15:19:05.146Z,9.19
2023-01-03T15:21:33.040Z,9.54
2023-01-03T15:24:02.061Z,9.35
2023-01-03T15:26:39.795Z,9.52
2023-01-03T15:29:13.623Z,9.13
2023-01-03T15:31:50.232Z,9.27
2023-01-03T15:34:19.971Z,9.64
2023-01-03T15:36:52.744Z,9.60
2023-01-03T15:39:23.600Z,9.45
2023-01-03T15:45:12.323Z,9.44
2023-01-03T15:47:40.772Z,9.16
2023-01-03T15:50:15.005Z,9.13
2023-01-03T15:52:42.527Z,9.30
2023-01-03T15:55:13.223Z,9.23
2023-01-03T15:57:41.162Z,9.62
2023-01-03T16:00:16.266Z,9.30
2023-01-03T16:02:43.790Z,9.34
2023-01-03T16:05:19.704Z,9.36
2023-01-03T16:07:48.982Z,9.09
2023-01-03T16:10:18.025Z,9.13
2023-01-03T16:12:45.489Z,9.36
2023-01-03T16:15:18.825Z,9.07
2023-01-03T16:17:46.994Z,9.10
2023-01-03T16:20:17.816Z,9.14
2023-01-03T16:22:55.860Z,9.08
2023-01-03T16:25:29.418Z,9.16
2023-01-03T16:27:56.918Z,9.31
2023-01-03T16:30:24.984Z,9.13
2023-01-03T16:32:52.811Z,9.14
2023-01-03T16:35:21.454Z,8.54
2023-01-03T16:37:48.907Z,8.81
2023-01-03T16:40:18.491Z,8.83
2023-01-03T16:42:47.455Z,8.84
2023-01-03T16:45:15.179Z,8.92
2023-01-03T16:47:44.712Z,8.72
2023-01-03T16:50:16.340Z,8.88
2023-01-03T16:52:47.323Z,8.71
2023-01-03T16:55:17.169Z,8.56
2023-01-03T16:57:48.832Z,8.86
2023-01-03T17:00:24.873Z,8.80
2023-01-03T17:02:52.608Z,8.74
2023-01-03T17:05:20.212Z,8.50
2023-01-03T17:07:51.285Z,8.53
2023-01-03T17:10:26.568Z,8.61
2023-01-03T17:12:54.835Z,8.66
2023-01-03T17:15:23.543Z,8.49
2023-01-03T17:17:51.119Z,8.78
2023-01-03T17:20:20.679Z,8.66
2023-01-03T17:22:51.686Z,8.64
2023-01-03T17:25:19.138Z,8.58
2023-01-03T17:27:50.812Z,8.59
2023-01-03T17:30:20.646Z,8.43
2023-01-03T17:32:49.462Z,8.15
2023-01-03T17:35:18.224Z,8.55
2023-01-03T17:38:23.399Z,8.51
2023-01-03T17:40:34.677Z,8.59
2023-01-03T17:43:02.769Z,8.51
2023-01-03T17:45:48.541Z,8.55
2023-01-03T17:48:35.157Z,8.54
2023-01-03T17:51:03.166Z,8.42
2023-01-03T17:53:30.739Z,8.43
2023-01-03T17:55:58.150Z,8.53
2023-01-03T17:58:31.932Z,8.35
2023-01-03T18:00:59.540Z,8.68
2023-01-03T18:03:29.076Z,8.75
2023-01-03T18:05:56.942Z,8.69
2023-01-03T18:08:25.943Z,8.73
2023-01-03T18:10:53.666Z,8.70
2023-01-03T18:13:24.765Z,8.50
2023-01-03T18:15:53.459Z,8.35
2023-01-03T18:18:23.189Z,8.28
2023-01-03T18:20:53.817Z,8.26
2023-01-03T18:23:27.928Z,8.49
2023-01-03T18:25:57.587Z,8.57
2023-01-03T18:28:28.793Z,8.44
2023-01-03T18:30:57.438Z,8.18
2023-01-03T18:33:25.332Z,8.28
2023-01-03T18:35:55.849Z,7.87
2023-01-03T18:38:26.341Z,8.16
2023-01-03T18:41:00.687Z,8.23
2023-01-03T18:43:31.713Z,8.19
2023-01-03T18:45:59.190Z,8.11
2023-01-03T18:48:26.732Z,8.36
2023-01-03T18:50:59.538Z,8.28
2023-01-03T18:53:31.038Z,8.33
2023-01-03T18:55:58.712Z,8.26
2023-01-03T18:58:32.682Z,8.23
2023-01-03T19:01:00.478Z,8.43
2023-01-03T19:03:29.717Z,8.54
2023-01-03T19:05:59.600Z,8.88
2023-01-03T19:08:30.284Z,8.70
2023-01-03T19:11:00.118Z,9.04
2023-01-03T19:13:30.328Z,8.93
2023-01-03T19:15:58.105Z,8.81
2023-01-03T19:18:25.624Z,8.75
2023-01-03T19:20:53.031Z,8.69
2023-01-03T19:23:24.980Z,8.54
2023-01-03T19:25:52.511Z,8.74
2023-01-03T19:28:23.806Z,8.64
2023-01-03T19:30:52.100Z,8.76
2023-01-03T19:33:21.190Z,8.76
2023-01-03T19:35:49.695Z,8.95
2023-01-03T19:38:17.364Z,9.08
2023-01-03T19:40:46.330Z,8.63
2023-01-03T19:43:21.910Z,8.97
2023-01-03T19:45:50.084Z,9.18
2023-01-03T19:48:19.731Z,8.81
2023-01-03T19:50:48.116Z,9.09
2023-01-03T19:53:15.591Z,9.07
2023-01-03T19:55:46.653Z,9.10
2023-01-03T19:58:18.430Z,8.92
2023-01-03T20:00:48.279Z,8.86
2023-01-03T20:03:24.158Z,9.01
2023-01-03T20:05:51.746Z,8.84
2023-01-03T20:08:19.149Z,9.09
2023-01-03T20:10:48.299Z,8.96
2023-01-03T20:13:19.039Z,8.67
2023-01-03T20:15:48.340Z,8.74
2023-01-03T20:18:25.617Z,8.77
2023-01-03T20:20:54.264Z,8.65
2023-01-03T20:23:21.904Z,8.71
2023-01-03T20:25:51.716Z,8.93
2023-01-03T20:28:22.855Z,8.81
2023-01-03T20:30:50.268Z,8.81
2023-01-03T20:33:17.674Z,8.66
2023-01-03T20:38:33.382Z,8.94
2023-01-03T20:41:02.122Z,8.34
2023-01-03T20:43:29.544Z,8.68
2023-01-03T20:45:58.807Z,8.91
2023-01-03T20:48:26.934Z,8.84
2023-01-03T20:50:54.555Z,8.58
2023-01-03T20:53:24.140Z,8.92
2023-01-03T20:55:52.938Z,8.81
2023-01-03T20:58:25.083Z,8.94
2023-01-03T21:00:58.145Z,8.68
2023-01-03T21:03:31.375Z,8.14
2023-01-03T21:05:59.079Z,8.23
2023-01-03T21:08:44.288Z,8.52
2023-01-03T21:11:12.217Z,8.67
2023-01-03T21:13:42.175Z,8.43
2023-01-03T21:16:20.835Z,8.80
2023-01-03T21:18:48.337Z,9.30
2023-01-03T21:21:19.402Z,8.46
2023-01-03T21:23:47.172Z,8.92
2023-01-03T21:26:14.754Z,10.78
2023-01-03T21:28:43.517Z,11.68
2023-01-03T21:31:17.721Z,10.33
2023-01-03T21:33:45.285Z,10.40
2023-01-03T21:36:19.212Z,10.21
2023-01-03T21:38:50.468Z,10.05
2023-01-03T21:41:18.918Z,10.10
2023-01-03T21:43:47.817Z,11.45
2023-01-03T21:46:17.800Z,11.61
2023-01-03T21:48:45.772Z,10.70
2023-01-03T21:51:16.320Z,10.02
2023-01-03T21:53:46.470Z,8.86
2023-01-03T21:56:20.130Z,9.18
2023-01-03T21:58:49.479Z,8.45
2023-01-03T22:01:18.913Z,8.84
2023-01-03T22:04:04.241Z,9.71
2023-01-03T22:06:31.759Z,9.66
2023-01-03T22:09:04.482Z,9.46
2023-01-03T22:11:32.488Z,9.58
2023-01-03T22:14:02.040Z,9.63
2023-01-03T22:16:29.512Z,9.18
2023-01-03T22:18:56.956Z,8.96
2023-01-03T22:21:26.753Z,8.73
2023-01-03T22:23:55.538Z,9.24
2023-01-03T22:26:25.124Z,9.07
2023-01-03T22:28:55.480Z,9.48
2023-01-03T22:31:24.280Z,9.67
2023-01-03T22:33:53.468Z,9.58
2023-01-03T22:36:21.049Z,9.34
2023-01-03T22:38:48.504Z,9.34
2023-01-03T22:41:17.499Z,9.59
2023-01-03T22:43:46.102Z,8.56
2023-01-03T22:46:15.634Z,9.08
2023-01-03T22:48:45.482Z,9.19
2023-01-03T22:51:14.816Z,9.16
2023-01-03T22:53:44.273Z,9.24
2023-01-03T22:56:15.091Z,9.10
2023-01-03T22:58:42.642Z,8.76
2023-01-03T23:01:12.220Z,9.07
2023-01-03T23:03:40.195Z,8.97
2023-01-03T23:06:13.713Z,8.74
2023-01-03T23:08:42.231Z,8.95
2023-01-03T23:11:33.902Z,8.79
2023-01-03T23:14:04.237Z,8.86
2023-01-03T23:16:32.264Z,8.85
2023-01-03T23:19:00.125Z,8.83
2023-01-03T23:21:28.968Z,8.87
2023-01-03T23:23:56.505Z,8.76
2023-01-03T23:26:24.398Z,8.76
2023-01-03T23:28:55.272Z,8.60
2023-01-03T23:31:22.962Z,8.20
2023-01-03T23:33:50.503Z,8.71
2023-01-03T23:36:18.685Z,8.55
2023-01-03T23:38:47.514Z,8.76
2023-01-03T23:41:15.123Z,8.63
2023-01-03T23:43:42.840Z,8.72
2023-01-03T23:46:16.152Z,8.54
2023-01-03T23:48:43.735Z,8.47
2023-01-03T23:51:12.392Z,8.49
2023-01-03T23:53:41.798Z,8.13
2023-01-03T23:56:13.440Z,7.72
2023-01-03T23:58:40.988Z,8.25
